createdAt,value
2023-03-06T00:00:27.350Z,3.71
2023-03-06T00:02:54.139Z,3.66
2023-03-06T00:05:20.965Z,3.69
2023-03-06T00:07:48.015Z,3.73
2023-03-06T00:10:20.024Z,3.72
2023-03-06T00:12:47.131Z,3.70
2023-03-06T00:15:14.239Z,3.67
2023-03-06T00:17:41.510Z,3.63
2023-03-06T00:20:10.756Z,3.60
2023-03-06T00:22:38.134Z,3.49
2023-03-06T00:25:05.759Z,3.58
2023-03-06T00:27:33.057Z,3.57
2023-03-06T00:30:00.773Z,3.53
2023-03-06T00:32:29.404Z,3.50
2023-03-06T00:34:56.431Z,3.50
2023-03-06T00:37:25.026Z,3.49
2023-03-06T00:39:51.994Z,3.49
2023-03-06T00:42:19.305Z,3.50
2023-03-06T00:44:46.301Z,3.51
2023-03-06T00:47:13.562Z,3.52
2023-03-06T00:49:40.191Z,3.54
2023-03-06T00:52:07.079Z,3.50
2023-03-06T00:54:33.637Z,3.54
2023-03-06T00:57:00.258Z,3.53
2023-03-06T00:59:27.855Z,3.51
2023-03-06T01:01:55.247Z,3.50
2023-03-06T01:04:22.016Z,3.47
2023-03-06T01:06:49.335Z,3.43
2023-03-06T01:09:16.279Z,3.42
2023-03-06T01:11:42.964Z,3.41
2023-03-06T01:14:09.947Z,3.39
2023-03-06T01:16:36.702Z,3.36
2023-03-06T01:19:03.760Z,3.32
2023-03-06T01:21:30.617Z,3.23
2023-03-06T01:23:57.256Z,3.26
2023-03-06T01:26:24.420Z,3.25
2023-03-06T01:28:51.306Z,3.21
2023-03-06T01:31:17.975Z,3.15
2023-03-06T01:33:44.615Z,3.17
2023-03-06T01:36:13.030Z,3.14
2023-03-06T01:38:39.863Z,3.11
2023-03-06T01:41:06.965Z,3.10
2023-03-06T01:43:37.170Z,3.08
2023-03-06T01:46:27.255Z,3.08
2023-03-06T01:49:23.365Z,3.05
2023-03-06T01:52:00.141Z,3.03
2023-03-06T01:54:55.473Z,3.03
2023-03-06T01:57:30.974Z,2.97
2023-03-06T02:00:14.212Z,2.90
2023-03-06T02:02:43.890Z,2.86
2023-03-06T02:05:12.078Z,2.82
2023-03-06T02:07:41.936Z,2.81
2023-03-06T02:10:09.613Z,2.87
2023-03-06T02:12:37.681Z,2.87
2023-03-06T02:15:04.853Z,2.85
2023-03-06T02:17:35.193Z,2.78
2023-03-06T02:20:13.414Z,2.80
2023-03-06T02:22:58.276Z,2.76
2023-03-06T02:25:43.370Z,2.85
2023-03-06T02:28:17.524Z,2.88
2023-03-06T02:30:45.425Z,2.90
2023-03-06T02:33:14.601Z,2.89
2023-03-06T02:35:46.848Z,2.90
2023-03-06T02:38:19.076Z,2.86
2023-03-06T02:40:49.754Z,2.90
2023-03-06T02:43:21.311Z,2.92
2023-03-06T02:45:51.199Z,2.92
2023-03-06T02:48:18.896Z,2.93
2023-03-06T02:50:46.511Z,2.94
2023-03-06T02:53:14.907Z,2.92
2023-03-06T02:55:41.879Z,2.88
2023-03-06T02:58:08.913Z,2.85
2023-03-06T03:00:36.367Z,2.82
2023-03-06T03:03:04.157Z,2.82
2023-03-06T03:05:30.875Z,2.78
2023-03-06T03:07:57.777Z,2.78
2023-03-06T03:10:24.661Z,2.76
2023-03-06T03:12:51.526Z,2.73
2023-03-06T03:15:18.706Z,2.72
2023-03-06T03:17:45.470Z,2.66
2023-03-06T03:20:14.467Z,2.70
2023-03-06T03:22:43.323Z,2.69
2023-03-06T03:25:10.164Z,2.71
2023-03-06T03:27:36.772Z,2.74
2023-03-06T03:30:04.513Z,2.76
2023-03-06T03:32:31.281Z,2.77
2023-03-06T03:34:57.928Z,2.71
2023-03-06T03:37:24.557Z,2.74
2023-03-06T03:39:51.167Z,2.74
2023-03-06T03:42:17.874Z,2.71
2023-03-06T03:44:44.588Z,2.62
2023-03-06T03:47:11.191Z,2.61
2023-03-06T03:49:38.718Z,2.57
2023-03-06T03:52:05.496Z,2.55
2023-03-06T03:54:32.320Z,2.55
2023-03-06T03:56:58.913Z,2.54
2023-03-06T03:59:25.728Z,2.57
2023-03-06T04:01:53.019Z,2.59
2023-03-06T04:04:19.681Z,2.59
2023-03-06T04:06:46.272Z,2.59
2023-03-06T04:09:12.937Z,2.58
2023-03-06T04:11:39.631Z,2.56
2023-03-06T04:14:08.519Z,2.57
2023-03-06T04:16:35.450Z,2.57
2023-03-06T04:19:02.098Z,2.53
2023-03-06T04:21:28.787Z,2.45
2023-03-06T04:23:55.498Z,2.46
2023-03-06T04:26:22.134Z,2.46
2023-03-06T04:28:49.064Z,2.43
2023-03-06T04:31:16.177Z,2.36
2023-03-06T04:33:42.823Z,2.39
2023-03-06T04:36:25.020Z,2.34
2023-03-06T04:38:51.676Z,2.35
2023-03-06T04:41:18.415Z,2.33
2023-03-06T04:43:46.351Z,2.31
2023-03-06T04:46:13.046Z,2.28
2023-03-06T04:48:39.664Z,2.13
2023-03-06T04:51:06.615Z,2.18
2023-03-06T04:53:33.303Z,2.15
2023-03-06T04:55:59.943Z,2.08
2023-03-06T04:58:26.552Z,2.11
2023-03-06T05:00:53.409Z,2.09
2023-03-06T05:03:20.164Z,2.09
2023-03-06T05:05:46.826Z,2.09
2023-03-06T05:08:15.428Z,2.09
2023-03-06T05:10:43.558Z,2.05
2023-03-06T05:13:10.667Z,2.01
2023-03-06T05:15:40.159Z,2.07
2023-03-06T05:18:06.891Z,2.08
2023-03-06T05:20:33.983Z,2.14
2023-03-06T05:23:00.670Z,2.13
2023-03-06T05:25:27.269Z,2.19
2023-03-06T05:27:54.190Z,2.21
2023-03-06T05:30:23.136Z,2.20
2023-03-06T05:32:50.804Z,2.23
2023-03-06T05:35:23.007Z,2.15
2023-03-06T05:37:50.074Z,2.20
2023-03-06T05:40:17.864Z,2.18
2023-03-06T05:42:45.004Z,2.31
2023-03-06T05:45:12.189Z,2.31
2023-03-06T05:47:39.013Z,2.32
2023-03-06T05:50:08.466Z,2.37
2023-03-06T05:52:35.066Z,2.36
2023-03-06T05:55:01.988Z,2.45
2023-03-06T05:57:28.923Z,2.45
2023-03-06T05:59:55.594Z,2.51
2023-03-06T06:02:22.710Z,2.59
2023-03-06T06:04:49.613Z,2.64
2023-03-06T06:07:17.019Z,2.66
2023-03-06T06:09:45.662Z,2.77
2023-03-06T06:12:13.203Z,2.84
2023-03-06T06:14:40.028Z,2.90
2023-03-06T06:17:07.467Z,2.95
2023-03-06T06:19:34.311Z,2.96
2023-03-06T06:22:02.781Z,3.01
2023-03-06T06:24:30.670Z,3.02
2023-03-06T06:26:58.421Z,3.09
2023-03-06T06:29:26.089Z,3.15
2023-03-06T06:31:54.050Z,3.19
2023-03-06T06:34:21.574Z,3.21
2023-03-06T06:36:48.362Z,3.22
2023-03-06T06:39:17.017Z,3.24
2023-03-06T06:41:59.819Z,3.23
2023-03-06T06:44:31.256Z,3.25
2023-03-06T06:47:21.904Z,3.28
2023-03-06T06:49:48.262Z,3.28
2023-03-06T06:52:15.359Z,3.31
2023-03-06T06:54:41.918Z,3.35
2023-03-06T06:57:10.611Z,3.31
2023-03-06T06:59:37.457Z,3.38
2023-03-06T07:02:04.268Z,3.40
2023-03-06T07:04:31.294Z,3.47
2023-03-06T07:06:58.605Z,3.56
2023-03-06T07:09:25.495Z,3.60
2023-03-06T07:11:52.360Z,3.63
2023-03-06T07:14:19.073Z,3.63
2023-03-06T07:16:45.744Z,3.60
2023-03-06T07:19:12.400Z,3.72
2023-03-06T07:21:39.186Z,3.76
2023-03-06T07:24:06.349Z,3.76
2023-03-06T07:26:34.759Z,3.88
2023-03-06T07:29:02.490Z,3.91
2023-03-06T07:31:29.249Z,3.88
2023-03-06T07:33:56.204Z,3.98
2023-03-06T07:36:23.827Z,4.04
2023-03-06T07:38:50.614Z,4.10
2023-03-06T07:41:21.869Z,4.17
2023-03-06T07:43:50.430Z,4.25
2023-03-06T07:46:17.544Z,4.37
2023-03-06T07:48:44.718Z,4.49
2023-03-06T07:51:20.304Z,4.63
2023-03-06T07:53:48.502Z,4.74
2023-03-06T07:56:15.299Z,4.82
2023-03-06T07:58:44.539Z,4.83
2023-03-06T08:01:14.066Z,4.81
2023-03-06T08:03:41.191Z,4.81
2023-03-06T08:06:17.462Z,4.90
2023-03-06T08:08:46.609Z,4.96
2023-03-06T08:11:15.581Z,5.05
2023-03-06T08:13:42.912Z,5.18
2023-03-06T08:16:10.451Z,5.32
2023-03-06T08:18:39.834Z,5.45
2023-03-06T08:21:18.549Z,5.52
2023-03-06T08:23:45.983Z,5.55
2023-03-06T08:26:15.713Z,5.56
2023-03-06T08:28:43.078Z,5.55
2023-03-06T08:31:19.035Z,5.49
2023-03-06T08:33:45.647Z,5.50
2023-03-06T08:36:12.290Z,5.52
2023-03-06T08:38:39.242Z,5.55
2023-03-06T08:41:06.082Z,5.62
2023-03-06T08:43:33.770Z,5.66
2023-03-06T08:46:00.610Z,5.65
2023-03-06T08:48:27.945Z,5.67
2023-03-06T08:50:54.757Z,5.71
2023-03-06T08:53:28.013Z,5.84
2023-03-06T08:56:04.416Z,5.94
2023-03-06T08:58:31.151Z,6.08
2023-03-06T09:00:58.154Z,6.15
2023-03-06T09:03:25.757Z,6.14
2023-03-06T09:05:52.756Z,6.19
2023-03-06T09:08:19.333Z,6.25
2023-03-06T09:10:48.213Z,6.24
2023-03-06T09:13:15.089Z,6.32
2023-03-06T09:15:41.851Z,6.31
2023-03-06T09:18:08.600Z,6.35
2023-03-06T09:20:35.744Z,6.38
2023-03-06T09:23:02.331Z,6.49
2023-03-06T09:25:29.256Z,6.69
2023-03-06T09:28:10.382Z,6.75
2023-03-06T09:30:40.817Z,6.75
2023-03-06T09:33:08.003Z,6.50
2023-03-06T09:35:34.917Z,6.43
2023-03-06T09:38:01.647Z,6.39
2023-03-06T09:40:49.778Z,6.64
2023-03-06T09:43:25.745Z,6.76
2023-03-06T09:45:52.877Z,7.07
2023-03-06T09:48:28.939Z,7.23
2023-03-06T09:51:03.390Z,7.35
2023-03-06T09:54:01.220Z,7.45
2023-03-06T09:56:32.844Z,7.47
2023-03-06T09:59:17.642Z,7.36
2023-03-06T10:01:56.413Z,7.30
2023-03-06T10:04:42.459Z,7.22
2023-03-06T10:07:18.404Z,7.13
2023-03-06T10:10:01.336Z,6.99
2023-03-06T10:12:34.040Z,7.00
2023-03-06T10:15:22.541Z,7.05
2023-03-06T10:17:49.777Z,7.11
2023-03-06T10:20:23.027Z,7.15
2023-03-06T10:23:24.940Z,7.37
2023-03-06T10:25:57.261Z,7.64
2023-03-06T10:28:52.610Z,7.83
2023-03-06T10:31:23.705Z,7.94
2023-03-06T10:34:19.427Z,7.93
2023-03-06T10:36:46.034Z,8.04
2023-03-06T10:39:19.884Z,8.26
2023-03-06T10:41:47.996Z,8.44
2023-03-06T10:44:14.585Z,8.56
2023-03-06T10:46:44.707Z,8.61
2023-03-06T10:49:14.404Z,8.63
2023-03-06T10:51:57.203Z,8.56
2023-03-06T10:54:24.301Z,8.43
2023-03-06T10:56:50.961Z,8.37
2023-03-06T10:59:19.729Z,8.26
2023-03-06T11:01:51.600Z,8.09
2023-03-06T11:04:26.332Z,8.09
2023-03-06T11:07:07.511Z,8.17
2023-03-06T11:09:34.691Z,8.30
2023-03-06T11:12:36.750Z,8.49
2023-03-06T11:15:17.921Z,8.71
2023-03-06T11:17:58.263Z,8.85
2023-03-06T11:20:52.366Z,9.08
2023-03-06T11:23:25.522Z,9.32
2023-03-06T11:26:08.473Z,9.50
2023-03-06T11:28:42.386Z,9.43
2023-03-06T11:31:31.741Z,9.17
2023-03-06T11:34:11.152Z,9.04
2023-03-06T11:36:44.581Z,8.97
2023-03-06T11:39:28.310Z,8.90
2023-03-06T11:42:10.952Z,9.07
2023-03-06T11:44:44.570Z,9.22
2023-03-06T11:47:18.327Z,9.40
2023-03-06T11:49:54.011Z,9.55
2023-03-06T11:52:40.820Z,9.50
2023-03-06T11:55:15.552Z,9.46
2023-03-06T11:57:53.170Z,9.32
2023-03-06T12:00:24.068Z,9.03
2023-03-06T12:03:00.976Z,8.74
2023-03-06T12:05:34.089Z,8.73
2023-03-06T12:08:19.990Z,8.67
2023-03-06T12:10:54.837Z,8.62
2023-03-06T12:13:39.847Z,8.62
2023-03-06T12:16:32.340Z,8.61
2023-03-06T12:19:30.459Z,8.63
2023-03-06T12:22:26.403Z,8.75
2023-03-06T12:25:02.372Z,8.83
2023-03-06T12:27:32.067Z,8.84
2023-03-06T12:30:20.725Z,8.91
2023-03-06T12:32:53.486Z,8.97
2023-03-06T12:35:34.984Z,8.92
2023-03-06T12:38:16.984Z,8.87
2023-03-06T12:40:43.906Z,8.87
2023-03-06T12:43:47.496Z,8.86
2023-03-06T12:46:17.582Z,8.78
2023-03-06T12:48:52.973Z,8.67
2023-03-06T12:51:21.460Z,8.61
2023-03-06T12:53:49.980Z,8.72
2023-03-06T12:56:18.808Z,8.70
2023-03-06T12:58:49.490Z,8.83
2023-03-06T13:01:55.521Z,8.97
2023-03-06T13:04:40.552Z,9.12
2023-03-06T13:07:07.299Z,9.29
2023-03-06T13:09:58.641Z,9.43
2023-03-06T13:12:55.972Z,9.67
2023-03-06T13:15:39.219Z,9.85
2023-03-06T13:18:24.128Z,9.93
2023-03-06T13:20:57.639Z,9.99
2023-03-06T13:23:33.421Z,9.92
2023-03-06T13:26:02.842Z,9.80
2023-03-06T13:28:46.378Z,9.78
2023-03-06T13:31:26.567Z,9.79
2023-03-06T13:33:56.486Z,9.84
2023-03-06T13:36:23.152Z,9.89
2023-03-06T13:38:53.029Z,9.95
2023-03-06T13:41:23.493Z,9.88
2023-03-06T13:43:53.452Z,9.84
2023-03-06T13:46:36.230Z,9.75
2023-03-06T13:49:08.652Z,9.83
2023-03-06T13:51:55.635Z,9.88
2023-03-06T13:54:25.149Z,9.93
2023-03-06T13:56:54.400Z,9.89
2023-03-06T13:59:54.442Z,9.79
2023-03-06T14:03:06.797Z,9.71
2023-03-06T14:05:53.990Z,9.58
2023-03-06T14:08:24.860Z,9.44
2023-03-06T14:11:21.162Z,9.45
2023-03-06T14:13:54.570Z,9.41
2023-03-06T14:16:27.893Z,9.40
2023-03-06T14:18:57.582Z,9.36
2023-03-06T14:21:48.473Z,9.25
2023-03-06T14:24:20.300Z,9.24
2023-03-06T14:26:51.919Z,9.19
2023-03-06T14:29:24.707Z,9.22
2023-03-06T14:31:53.703Z,9.12
2023-03-06T14:34:30.377Z,9.24
2023-03-06T14:37:02.233Z,9.25
2023-03-06T14:39:39.532Z,9.28
2023-03-06T14:42:21.359Z,9.27
2023-03-06T14:44:49.882Z,9.26
2023-03-06T14:47:31.601Z,9.24
2023-03-06T14:50:21.554Z,9.21
2023-03-06T14:52:50.345Z,9.19
2023-03-06T14:55:23.664Z,9.15
2023-03-06T14:58:02.515Z,9.12
2023-03-06T15:00:38.168Z,9.12
2023-03-06T15:03:08.737Z,9.03
2023-03-06T15:05:35.729Z,9.01
2023-03-06T15:08:07.077Z,8.89
2023-03-06T15:10:35.887Z,8.87
2023-03-06T15:13:11.503Z,8.81
2023-03-06T15:15:38.410Z,8.81
2023-03-06T15:18:29.210Z,8.75
2023-03-06T15:21:08.272Z,8.67
2023-03-06T15:23:40.746Z,8.63
2023-03-06T15:26:29.445Z,8.58
2023-03-06T15:29:08.278Z,8.53
2023-03-06T15:31:39.058Z,8.43
2023-03-06T15:34:11.483Z,8.42
2023-03-06T15:36:40.476Z,8.35
2023-03-06T15:39:33.461Z,8.29
2023-03-06T15:42:01.708Z,8.21
2023-03-06T15:44:31.749Z,8.10
2023-03-06T15:47:08.448Z,8.03
2023-03-06T15:49:38.320Z,7.90
2023-03-06T15:52:08.552Z,7.74
2023-03-06T15:54:35.799Z,7.66
2023-03-06T15:57:06.171Z,7.53
2023-03-06T15:59:41.526Z,7.45
2023-03-06T16:02:17.150Z,7.36
2023-03-06T16:04:44.317Z,7.33
2023-03-06T16:07:11.634Z,7.25
2023-03-06T16:09:38.426Z,7.06
2023-03-06T16:12:05.930Z,7.09
2023-03-06T16:14:32.686Z,7.02
2023-03-06T16:16:59.937Z,6.91
2023-03-06T16:19:27.789Z,6.79
2023-03-06T16:21:55.848Z,6.72
2023-03-06T16:24:24.076Z,6.61
2023-03-06T16:26:52.586Z,6.52
2023-03-06T16:29:25.084Z,6.40
2023-03-06T16:31:55.262Z,6.20
2023-03-06T16:34:22.131Z,6.12
2023-03-06T16:36:49.575Z,5.98
2023-03-06T16:39:18.864Z,5.84
2023-03-06T16:41:49.463Z,5.73
2023-03-06T16:44:16.690Z,5.64
2023-03-06T16:46:46.976Z,5.49
2023-03-06T16:49:16.925Z,5.39
2023-03-06T16:51:44.507Z,5.30
2023-03-06T16:54:12.128Z,5.17
2023-03-06T16:56:38.799Z,5.07
2023-03-06T16:59:05.502Z,4.96
2023-03-06T17:01:32.285Z,4.86
2023-03-06T17:03:59.063Z,4.73
2023-03-06T17:06:25.817Z,4.66
2023-03-06T17:08:52.629Z,4.50
2023-03-06T17:11:22.006Z,4.40
2023-03-06T17:13:48.913Z,4.38
2023-03-06T17:16:16.721Z,4.30
2023-03-06T17:18:45.531Z,4.21
2023-03-06T17:21:15.753Z,4.10
2023-03-06T17:23:42.913Z,4.09
2023-03-06T17:26:12.866Z,4.01
2023-03-06T17:28:40.286Z,4.01
2023-03-06T17:31:13.166Z,3.99
2023-03-06T17:33:40.092Z,3.98
2023-03-06T17:36:07.431Z,3.95
2023-03-06T17:38:34.652Z,3.85
2023-03-06T17:41:06.187Z,3.78
2023-03-06T17:43:33.752Z,3.75
2023-03-06T17:46:08.758Z,3.70
2023-03-06T17:48:36.271Z,3.63
2023-03-06T17:51:03.657Z,3.57
2023-03-06T17:53:30.357Z,3.51
2023-03-06T17:55:59.993Z,3.51
2023-03-06T17:58:27.220Z,3.43
2023-03-06T18:00:53.844Z,3.37
2023-03-06T18:03:21.101Z,3.33
2023-03-06T18:05:47.882Z,3.27
2023-03-06T18:08:14.564Z,3.19
2023-03-06T18:10:43.494Z,3.12
2023-03-06T18:13:10.993Z,3.11
2023-03-06T18:15:41.630Z,3.08
2023-03-06T18:18:08.950Z,3.06
2023-03-06T18:20:41.051Z,3.00
2023-03-06T18:23:07.851Z,2.90
2023-03-06T18:25:38.108Z,2.85
2023-03-06T18:28:05.993Z,2.81
2023-03-06T18:30:36.316Z,2.77
2023-03-06T18:33:03.052Z,2.71
2023-03-06T18:35:29.707Z,2.69
2023-03-06T18:37:56.353Z,2.62
2023-03-06T18:40:24.850Z,2.58
2023-03-06T18:42:54.847Z,2.49
2023-03-06T18:45:21.619Z,2.51
2023-03-06T18:47:48.226Z,2.48
2023-03-06T18:50:16.516Z,2.45
2023-03-06T18:52:44.132Z,2.51
2023-03-06T18:55:11.111Z,2.48
2023-03-06T18:57:38.101Z,2.40
2023-03-06T19:00:06.739Z,2.37
2023-03-06T19:02:33.483Z,2.43
2023-03-06T19:05:00.124Z,2.39
2023-03-06T19:07:26.858Z,2.33
2023-03-06T19:09:53.542Z,2.35
2023-03-06T19:12:20.220Z,2.31
2023-03-06T19:14:48.447Z,2.12
2023-03-06T19:17:15.141Z,2.11
2023-03-06T19:19:41.713Z,2.10
2023-03-06T19:22:08.429Z,2.10
2023-03-06T19:24:35.220Z,2.05
2023-03-06T19:27:01.877Z,2.01
2023-03-06T19:29:28.747Z,1.91
2023-03-06T19:31:57.338Z,1.84
2023-03-06T19:34:24.155Z,1.76
2023-03-06T19:36:51.041Z,1.72
2023-03-06T19:39:17.652Z,1.66
2023-03-06T19:41:46.420Z,1.59
2023-03-06T19:44:14.608Z,1.50
2023-03-06T19:46:41.435Z,1.52
2023-03-06T19:49:12.139Z,1.46
2023-03-06T19:51:39.052Z,1.48
2023-03-06T19:54:05.845Z,1.50
2023-03-06T19:56:33.710Z,1.53
2023-03-06T19:59:00.561Z,1.49
2023-03-06T20:01:28.249Z,1.47
2023-03-06T20:03:59.442Z,1.48
2023-03-06T20:06:29.061Z,1.50
2023-03-06T20:08:56.120Z,1.51
2023-03-06T20:11:25.764Z,1.54
2023-03-06T20:13:54.277Z,1.58
2023-03-06T20:16:21.155Z,1.62
2023-03-06T20:18:47.811Z,1.68
2023-03-06T20:21:14.769Z,1.72
2023-03-06T20:23:41.965Z,1.78
2023-03-06T20:26:11.887Z,1.84
2023-03-06T20:28:39.948Z,1.89
2023-03-06T20:31:18.236Z,2.09
2023-03-06T20:33:48.057Z,2.28
2023-03-06T20:36:17.710Z,2.36
2023-03-06T20:38:45.450Z,2.36
2023-03-06T20:41:20.947Z,2.35
2023-03-06T20:43:48.283Z,2.33
2023-03-06T20:46:15.569Z,2.37
2023-03-06T20:48:43.368Z,2.36
2023-03-06T20:51:24.480Z,2.44
2023-03-06T20:53:55.815Z,2.46
2023-03-06T20:56:25.883Z,2.49
2023-03-06T20:58:53.221Z,2.50
2023-03-06T21:01:31.407Z,2.55
2023-03-06T21:03:59.796Z,2.56
2023-03-06T21:06:28.533Z,2.62
2023-03-06T21:08:57.035Z,2.63
2023-03-06T21:11:24.482Z,2.69
2023-03-06T21:13:52.715Z,2.69
2023-03-06T21:16:21.949Z,2.74
2023-03-06T21:18:48.577Z,2.74
2023-03-06T21:21:18.486Z,2.70
2023-03-06T21:23:46.829Z,2.72
2023-03-06T21:26:19.437Z,2.67
2023-03-06T21:28:46.559Z,2.69
2023-03-06T21:31:15.204Z,2.71
2023-03-06T21:33:42.118Z,2.68
2023-03-06T21:36:09.673Z,2.72
2023-03-06T21:38:36.815Z,2.72
2023-03-06T21:41:28.960Z,2.72
2023-03-06T21:43:57.317Z,2.67
2023-03-06T21:46:24.498Z,2.69
2023-03-06T21:48:51.608Z,2.72
2023-03-06T21:51:20.307Z,2.78
2023-03-06T21:53:48.576Z,2.75
2023-03-06T21:56:17.763Z,2.80
2023-03-06T21:58:45.553Z,2.81
2023-03-06T22:01:31.500Z,2.83
2023-03-06T22:04:00.604Z,2.83
2023-03-06T22:06:28.910Z,2.83
2023-03-06T22:08:56.480Z,2.76
2023-03-06T22:11:24.943Z,2.82
2023-03-06T22:13:53.456Z,2.82
2023-03-06T22:16:20.903Z,2.80
2023-03-06T22:18:50.024Z,2.83
2023-03-06T22:21:19.198Z,2.83
2023-03-06T22:23:53.020Z,2.91
2023-03-06T22:26:20.611Z,2.93
2023-03-06T22:28:47.323Z,2.93
2023-03-06T22:31:17.197Z,2.95
2023-03-06T22:33:44.580Z,2.98
2023-03-06T22:36:14.390Z,2.99
2023-03-06T22:38:44.033Z,2.99
2023-03-06T22:41:12.281Z,2.99
2023-03-06T22:43:39.081Z,3.02
2023-03-06T22:46:25.716Z,3.03
2023-03-06T22:48:52.560Z,3.05
2023-03-06T22:51:20.967Z,3.06
2023-03-06T22:53:48.721Z,3.19
2023-03-06T22:56:17.928Z,3.31
2023-03-06T22:58:45.029Z,3.36
2023-03-06T23:01:20.450Z,3.38
2023-03-06T23:03:49.817Z,3.31
2023-03-06T23:06:26.003Z,3.27
2023-03-06T23:09:08.131Z,3.22
2023-03-06T23:11:35.336Z,3.29
2023-03-06T23:14:02.371Z,3.26
2023-03-06T23:16:29.375Z,3.33
2023-03-06T23:18:56.217Z,3.30
2023-03-06T23:21:24.328Z,3.32
2023-03-06T23:23:52.916Z,3.36
2023-03-06T23:26:23.543Z,3.37
2023-03-06T23:28:50.246Z,3.39
2023-03-06T23:31:20.175Z,3.41
2023-03-06T23:33:47.942Z,3.41
2023-03-06T23:36:17.079Z,3.40
2023-03-06T23:38:44.774Z,3.47
2023-03-06T23:41:14.786Z,3.48
2023-03-06T23:43:41.788Z,3.47
2023-03-06T23:46:09.030Z,3.48
2023-03-06T23:48:37.431Z,3.48
2023-03-06T23:51:13.706Z,3.47
2023-03-06T23:53:40.768Z,3.47
2023-03-06T23:56:07.986Z,3.47
2023-03-06T23:58:35.249Z,3.44
